createdAt,value
2018-03-01T00:01:18.387Z,100952.11
2018-03-01T00:03:45.886Z,100959.31
2018-03-01T00:06:13.388Z,100953.81
2018-03-01T00:08:40.893Z,100952.09
2018-03-01T00:11:08.384Z,100957.63
2018-03-01T00:13:35.884Z,100949.98
2018-03-01T00:16:03.395Z,100944.46
2018-03-01T00:18:30.885Z,100957.63
2018-03-01T00:20:58.387Z,100955.09
2018-03-01T00:23:25.891Z,100953.81
2018-03-01T00:25:53.386Z,100947.44
2018-03-01T00:28:20.882Z,100946.15
2018-03-01T00:30:48.374Z,100939.79
2018-03-01T00:33:15.907Z,100940.20
2018-03-01T00:35:43.426Z,100946.58
2018-03-01T00:38:10.922Z,100938.91
2018-03-01T00:40:38.422Z,100930.84
2018-03-01T00:43:05.914Z,100932.16
2018-03-01T00:45:33.420Z,100925.37
2018-03-01T00:48:00.925Z,100913.88
2018-03-01T00:50:28.432Z,100919.45
2018-03-01T00:52:55.942Z,100913.94
2018-03-01T00:55:23.454Z,100907.98
2018-03-01T00:57:50.935Z,100904.61
2018-03-01T01:00:18.438Z,100911.43
2018-03-01T01:02:45.923Z,100902.53
2018-03-01T01:05:13.432Z,100895.75
2018-03-01T01:07:40.920Z,100894.49
2018-03-01T01:10:08.415Z,100893.63
2018-03-01T01:12:35.917Z,100887.70
2018-03-01T01:15:03.422Z,100883.03
2018-03-01T01:17:30.937Z,100882.61
2018-03-01T01:19:58.465Z,100885.59
2018-03-01T01:22:25.979Z,100872.84
2018-03-01T01:24:53.478Z,100873.30
2018-03-01T01:27:20.979Z,100871.19
2018-03-01T01:29:48.476Z,100872.89
2018-03-01T01:32:16.001Z,100872.05
2018-03-01T01:34:43.503Z,100863.97
2018-03-01T01:37:11.024Z,100865.23
2018-03-01T01:39:38.523Z,100858.44
2018-03-01T01:42:06.030Z,100854.63
2018-03-01T01:44:33.515Z,100846.95
2018-03-01T01:47:00.992Z,100840.15
2018-03-01T01:49:28.487Z,100834.64
2018-03-01T01:51:56.008Z,100830.81
2018-03-01T01:54:23.490Z,100826.53
2018-03-01T01:56:50.974Z,100814.62
2018-03-01T01:59:18.474Z,100810.81
2018-03-01T02:01:45.961Z,100803.16
2018-03-01T02:04:13.449Z,100800.16
2018-03-01T02:06:40.934Z,100795.08
2018-03-01T02:09:08.418Z,100790.38
2018-03-01T02:11:35.916Z,100789.13
2018-03-01T02:14:03.423Z,100788.27
2018-03-01T02:16:30.940Z,100780.17
2018-03-01T02:18:58.419Z,100775.08
2018-03-01T02:21:25.925Z,100772.11
2018-03-01T02:23:53.420Z,100771.67
2018-03-01T02:26:20.904Z,100753.82
2018-03-01T02:28:48.396Z,100757.20
2018-03-01T02:31:15.940Z,100753.39
2018-03-01T02:33:43.431Z,100757.63
2018-03-01T02:36:10.941Z,100742.33
2018-03-01T02:38:38.449Z,100739.37
2018-03-01T02:41:05.951Z,100730.86
2018-03-01T02:43:33.479Z,100724.05
2018-03-01T02:48:29.018Z,100710.46
2018-03-01T02:50:56.524Z,100708.75
2018-03-01T02:53:24.032Z,100706.20
2018-03-01T02:55:51.523Z,100702.80
2018-03-01T02:58:19.027Z,100688.34
2018-03-01T03:00:46.536Z,100688.77
2018-03-01T03:03:14.034Z,100676.86
2018-03-01T03:05:41.631Z,100668.77
2018-03-01T03:08:09.124Z,100664.11
2018-03-01T03:10:36.634Z,100663.25
2018-03-01T03:13:04.124Z,100658.57
2018-03-01T03:15:31.614Z,100654.72
2018-03-01T03:17:59.135Z,100646.23
2018-03-01T03:20:26.635Z,100643.67
2018-03-01T03:22:54.126Z,100644.12
2018-03-01T03:25:21.623Z,100633.05
2018-03-01T03:27:49.142Z,100637.28
2018-03-01T03:30:16.636Z,100632.61
2018-03-01T03:32:44.112Z,100633.47
2018-03-01T03:35:11.619Z,100627.94
2018-03-01T03:37:39.112Z,100616.04
2018-03-01T03:40:06.640Z,100608.38
2018-03-01T03:42:34.145Z,100607.52
2018-03-01T03:45:01.655Z,100610.07
2018-03-01T03:47:29.150Z,100596.03
2018-03-01T03:49:56.650Z,100590.52
2018-03-01T03:52:24.192Z,100585.84
2018-03-01T03:54:51.689Z,100593.93
2018-03-01T03:57:19.171Z,100579.02
2018-03-01T03:59:46.680Z,100579.02
2018-03-01T04:02:14.176Z,100567.97
2018-03-01T04:04:41.715Z,100561.59
2018-03-01T04:07:09.207Z,100550.13
2018-03-01T04:09:36.710Z,100541.61
2018-03-01T04:12:04.210Z,100541.61
2018-03-01T04:14:31.702Z,100539.05
2018-03-01T04:16:59.191Z,100531.38
2018-03-01T04:19:26.683Z,100533.52
2018-03-01T04:21:54.201Z,100532.22
2018-03-01T04:24:21.697Z,100527.13
2018-03-01T04:26:49.188Z,100519.02
2018-03-01T04:29:16.687Z,100520.30
2018-03-01T04:31:44.184Z,100519.04
2018-03-01T04:34:11.679Z,100513.52
2018-03-01T04:36:39.175Z,100506.69
2018-03-01T04:39:06.685Z,100500.31
2018-03-01T04:41:34.173Z,100501.56
2018-03-01T04:44:01.664Z,100490.51
2018-03-01T04:46:29.184Z,100483.70
2018-03-01T04:48:56.667Z,100476.05
2018-03-01T04:51:24.168Z,100472.66
2018-03-01T04:53:51.662Z,100457.31
2018-03-01T04:56:19.159Z,100450.51
2018-03-01T04:58:46.655Z,100451.78
2018-03-01T05:01:14.169Z,100445.83
2018-03-01T05:03:41.685Z,100437.77
2018-03-01T05:06:09.178Z,100438.59
2018-03-01T05:08:36.661Z,100429.66
2018-03-01T05:11:04.172Z,100430.52
2018-03-01T05:13:31.675Z,100419.48
2018-03-01T05:15:59.167Z,100408.84
2018-03-01T05:18:26.665Z,100401.17
2018-03-01T05:20:54.161Z,100390.53
2018-03-01T05:23:21.657Z,100401.60
2018-03-01T05:25:49.191Z,100396.06
2018-03-01T05:28:16.691Z,100388.84
2018-03-01T05:30:44.206Z,100392.66
2018-03-01T05:33:11.728Z,100388.84
2018-03-01T05:35:39.215Z,100379.91
2018-03-01T05:38:06.724Z,100377.36
2018-03-01T05:40:34.207Z,100371.41
2018-03-01T05:43:01.703Z,100373.95
2018-03-01T05:45:29.197Z,100380.77
2018-03-01T05:47:56.684Z,100369.70
2018-03-01T05:50:24.199Z,100369.27
2018-03-01T05:55:15.295Z,100370.13
2018-03-01T05:57:42.805Z,100356.08
2018-03-01T06:00:10.299Z,100365.87
2018-03-01T06:02:37.791Z,100355.23
2018-03-01T06:05:05.319Z,100359.48
2018-03-01T06:07:32.829Z,100356.52
2018-03-01T06:10:00.335Z,100341.60
2018-03-01T06:12:27.850Z,100345.86
2018-03-01T06:14:55.336Z,100340.33
2018-03-01T06:17:22.849Z,100336.08
2018-03-01T06:19:50.335Z,100338.63
2018-03-01T06:22:17.835Z,100336.95
2018-03-01T06:24:45.418Z,100331.84
2018-03-01T06:27:12.939Z,100320.78
2018-03-01T06:29:40.502Z,100322.06
2018-03-01T06:32:08.067Z,100319.94
2018-03-01T06:34:35.581Z,100322.48
2018-03-01T06:37:03.095Z,100312.27
2018-03-01T06:39:30.615Z,100314.41
2018-03-01T06:41:58.108Z,100311.42
2018-03-01T06:44:25.612Z,100304.20
2018-03-01T06:46:53.112Z,100307.16
2018-03-01T06:49:20.628Z,100310.98
2018-03-01T06:51:48.151Z,100313.14
2018-03-01T06:54:15.640Z,100310.56
2018-03-01T06:56:43.124Z,100293.57
2018-03-01T06:59:10.623Z,100302.52
2018-03-01T07:01:38.136Z,100308.08
2018-03-01T07:04:05.647Z,100308.50
2018-03-01T07:06:33.136Z,100302.97
2018-03-01T07:09:00.639Z,100289.38
2018-03-01T07:11:28.149Z,100280.44
2018-03-01T07:13:55.658Z,100269.38
2018-03-01T07:16:23.170Z,100263.43
2018-03-01T07:18:50.675Z,100260.45
2018-03-01T07:21:18.380Z,100248.97
2018-03-01T07:23:45.918Z,100247.27
2018-03-01T07:26:13.992Z,100243.86
2018-03-01T07:28:42.045Z,100241.31
2018-03-01T07:31:09.548Z,100239.19
2018-03-01T07:33:37.047Z,100233.68
2018-03-01T07:36:04.555Z,100235.78
2018-03-01T07:38:32.101Z,100231.11
2018-03-01T07:40:59.623Z,100231.50
2018-03-01T07:43:27.141Z,100219.18
2018-03-01T07:45:54.640Z,100212.38
2018-03-01T07:48:22.156Z,100206.42
2018-03-01T07:50:49.665Z,100208.09
2018-03-01T07:53:17.216Z,100191.93
2018-03-01T07:55:44.738Z,100200.41
2018-03-01T07:58:12.235Z,100199.99
2018-03-01T08:00:39.803Z,100191.06
2018-03-01T08:03:07.294Z,100193.16
2018-03-01T08:05:34.817Z,100184.23
2018-03-01T08:08:02.409Z,100172.72
2018-03-01T08:10:29.916Z,100171.00
2018-03-01T08:12:57.429Z,100167.14
2018-03-01T08:15:24.933Z,100172.65
2018-03-01T08:17:52.426Z,100163.69
2018-03-01T08:20:19.923Z,100161.96
2018-03-01T08:22:47.422Z,100161.48
2018-03-01T08:25:16.114Z,100156.80
2018-03-01T08:27:43.601Z,100155.07
2018-03-01T08:30:11.104Z,100155.47
2018-03-01T08:32:38.616Z,100145.23
2018-03-01T08:35:06.105Z,100132.46
2018-03-01T08:37:33.600Z,100140.52
2018-03-01T08:40:01.114Z,100133.68
2018-03-01T08:42:28.626Z,100123.86
2018-03-01T08:44:56.140Z,100117.05
2018-03-01T08:47:23.632Z,100122.98
2018-03-01T08:49:51.137Z,100127.63
2018-03-01T08:52:18.646Z,100112.67
2018-03-01T08:54:46.151Z,100113.09
2018-03-01T08:57:13.651Z,100111.81
2018-03-01T08:59:41.141Z,100100.72
2018-03-01T09:02:08.644Z,100107.92
2018-03-01T09:04:36.147Z,100103.63
2018-03-01T09:07:04.533Z,100087.39
2018-03-01T09:09:32.118Z,100079.33
2018-03-01T09:11:59.627Z,100069.92
2018-03-01T09:14:27.152Z,100068.16
2018-03-01T09:16:55.252Z,100063.01
2018-03-01T09:19:22.811Z,100047.25
2018-03-01T09:21:50.307Z,100039.59
2018-03-01T09:24:17.815Z,100025.03
2018-03-01T09:26:45.328Z,100022.40
2018-03-01T09:29:12.826Z,100009.11
2018-03-01T09:31:40.319Z,100028.66
2018-03-01T09:34:07.828Z,100014.53
2018-03-01T09:36:35.315Z,100011.97
2018-03-01T09:39:02.915Z,100019.25
2018-03-01T09:41:30.447Z,100015.38
2018-03-01T09:43:58.747Z,100021.77
2018-03-01T09:46:26.286Z,100015.80
2018-03-01T09:48:53.810Z,100014.48
2018-03-01T09:51:21.304Z,100013.25
2018-03-01T09:53:48.816Z,100009.41
2018-03-01T09:56:16.327Z,100010.66
2018-03-01T09:58:43.833Z,100007.20
2018-03-01T10:01:11.319Z,100005.11
2018-03-01T10:03:38.797Z,99995.78
2018-03-01T10:06:06.301Z,99986.84
2018-03-01T10:08:33.792Z,99978.74
2018-03-01T10:11:01.280Z,99983.00
2018-03-01T10:13:28.795Z,99981.77
2018-03-01T10:15:56.322Z,99983.47
2018-03-01T10:18:23.827Z,99985.56
2018-03-01T10:20:51.343Z,99991.14
2018-03-01T10:23:18.835Z,99989.44
2018-03-01T10:25:46.332Z,99997.95
2018-03-01T10:28:13.840Z,99997.92
2018-03-01T10:30:41.359Z,100004.77
2018-03-01T10:33:08.871Z,99996.21
2018-03-01T10:35:36.356Z,99989.39
2018-03-01T10:38:03.875Z,99980.02
2018-03-01T10:40:31.403Z,99971.92
2018-03-01T10:42:58.908Z,99980.06
2018-03-01T10:45:26.408Z,99978.83
2018-03-01T10:47:53.887Z,99977.97
2018-03-01T10:50:21.381Z,99959.27
2018-03-01T10:52:48.902Z,99945.64
2018-03-01T10:55:16.404Z,99953.73
2018-03-01T10:57:43.898Z,99945.22
2018-03-01T11:00:11.423Z,99939.26
2018-03-01T11:02:38.931Z,99927.76
2018-03-01T11:05:06.431Z,99930.30
2018-03-01T11:07:33.928Z,99916.59
2018-03-01T11:10:01.463Z,99917.39
2018-03-01T11:12:28.971Z,99908.74
2018-03-01T11:14:56.495Z,99901.45
2018-03-01T11:17:23.985Z,99893.68
2018-03-01T11:19:52.345Z,99891.45
2018-03-01T11:22:19.889Z,99874.02
2018-03-01T11:24:47.403Z,99867.20
2018-03-01T11:27:14.935Z,99861.63
2018-03-01T11:29:42.493Z,99864.98
2018-03-01T11:32:09.985Z,99852.62
2018-03-01T11:34:38.685Z,99854.70
2018-03-01T11:37:06.304Z,99847.45
2018-03-01T11:39:33.819Z,99852.09
2018-03-01T11:42:01.402Z,99849.48
2018-03-01T11:44:28.910Z,99845.16
2018-03-01T11:46:56.435Z,99843.88
2018-03-01T11:49:24.010Z,99838.34
2018-03-01T11:51:51.507Z,99814.91
2018-03-01T11:54:19.726Z,99811.48
2018-03-01T11:56:47.232Z,99795.67
2018-03-01T11:59:14.723Z,99782.83
2018-03-01T12:01:42.255Z,99780.69
2018-03-01T12:04:09.739Z,99778.51
2018-03-01T12:06:37.238Z,99771.73
2018-03-01T12:09:04.806Z,99763.69
2018-03-01T12:11:32.340Z,99767.11
2018-03-01T12:13:59.840Z,99733.01
2018-03-01T12:16:27.380Z,99750.13
2018-03-01T12:18:54.871Z,99741.96
2018-03-01T12:21:22.412Z,99732.11
2018-03-01T12:23:49.916Z,99726.08
2018-03-01T12:26:17.402Z,99728.63
2018-03-01T12:28:47.127Z,99718.34
2018-03-01T12:34:03.048Z,99709.50
2018-03-01T12:36:30.962Z,99729.05
2018-03-01T12:39:02.890Z,99720.59
2018-03-01T12:41:34.726Z,99712.92
2018-03-01T12:44:02.300Z,99712.49
2018-03-01T12:46:31.149Z,99703.04
2018-03-01T12:48:59.462Z,99706.36
2018-03-01T12:51:27.021Z,99694.82
2018-03-01T12:53:54.572Z,99701.17
2018-03-01T12:56:22.128Z,99694.89
2018-03-01T12:58:49.680Z,99694.58
2018-03-01T13:01:17.236Z,99689.11
2018-03-01T13:03:44.735Z,99689.11
2018-03-01T13:06:12.260Z,99684.83
2018-03-01T13:08:39.775Z,99683.99
2018-03-01T13:11:07.357Z,99686.96
2018-03-01T13:13:34.860Z,99675.53
2018-03-01T13:16:02.416Z,99673.39
2018-03-01T13:18:29.937Z,99681.06
2018-03-01T13:20:57.486Z,99671.26
2018-03-01T13:23:25.001Z,99659.25
2018-03-01T13:25:52.559Z,99673.63
2018-03-01T13:28:20.147Z,99661.22
2018-03-01T13:30:50.286Z,99673.09
2018-03-01T13:33:18.778Z,99668.39
2018-03-01T13:35:47.049Z,99655.44
2018-03-01T13:38:14.591Z,99640.48
2018-03-01T13:40:42.108Z,99643.36
2018-03-01T13:43:19.547Z,99639.83
2018-03-01T13:45:48.897Z,99633.72
2018-03-01T13:48:16.548Z,99635.70
2018-03-01T13:50:44.178Z,99628.77
2018-03-01T13:53:12.009Z,99625.41
2018-03-01T13:55:39.666Z,99621.50
2018-03-01T13:58:18.095Z,99608.63
2018-03-01T14:01:04.335Z,99608.20
2018-03-01T14:11:01.971Z,99596.62
2018-03-01T14:13:33.464Z,99596.97
2018-03-01T14:16:00.980Z,99574.84
2018-03-01T14:18:32.188Z,99572.71
2018-03-01T14:21:05.151Z,99563.28
2018-03-01T14:23:43.413Z,99570.95
2018-03-01T14:26:21.716Z,99558.57
2018-03-01T14:32:00.361Z,99538.52
2018-03-01T14:34:27.849Z,99524.94
2018-03-01T14:36:55.353Z,99525.86
2018-03-01T14:39:22.852Z,99530.16
2018-03-01T14:41:50.357Z,99514.48
2018-03-01T14:44:17.883Z,99508.61
2018-03-01T14:46:45.404Z,99501.41
2018-03-01T14:49:12.920Z,99496.37
2018-03-01T14:51:40.437Z,99492.56
2018-03-01T14:54:07.960Z,99476.41
2018-03-01T14:56:35.578Z,99473.85
2018-03-01T14:59:03.120Z,99470.81
2018-03-01T15:01:30.635Z,99456.30
2018-03-01T15:03:58.131Z,99462.27
2018-03-01T15:06:25.616Z,99450.75
2018-03-01T15:08:53.116Z,99434.48
2018-03-01T15:11:20.627Z,99437.89
2018-03-01T15:13:48.109Z,99434.89
2018-03-01T15:16:15.604Z,99431.42
2018-03-01T15:18:43.115Z,99423.36
2018-03-01T15:21:10.657Z,99411.36
2018-03-01T15:23:38.167Z,99411.36
2018-03-01T15:26:05.685Z,99404.13
2018-03-01T15:28:33.256Z,99392.24
2018-03-01T15:31:00.759Z,99394.37
2018-03-01T15:33:28.259Z,99378.53
2018-03-01T15:35:55.801Z,99386.19
2018-03-01T15:38:23.296Z,99378.88
2018-03-01T15:40:50.835Z,99369.49
2018-03-01T15:43:18.344Z,99356.33
2018-03-01T15:45:45.826Z,99364.89
2018-03-01T15:48:13.347Z,99352.92
2018-03-01T15:50:40.844Z,99352.98
2018-03-01T15:53:08.344Z,99351.73
2018-03-01T15:55:35.890Z,99351.33
2018-03-01T15:58:04.588Z,99340.73
2018-03-01T16:00:32.088Z,99330.55
2018-03-01T16:02:59.595Z,99320.34
2018-03-01T16:05:27.099Z,99311.89
2018-03-01T16:07:54.583Z,99285.95
2018-03-01T16:10:22.088Z,99305.63
2018-03-01T16:12:49.653Z,99295.05
2018-03-01T16:15:17.187Z,99281.06
2018-03-01T16:17:44.712Z,99279.86
2018-03-01T16:20:12.254Z,99271.41
2018-03-01T16:22:41.301Z,99262.98
2018-03-01T16:25:08.856Z,99257.94
2018-03-01T16:27:36.412Z,99253.28
2018-03-01T16:30:03.944Z,99248.66
2018-03-01T16:32:32.468Z,99250.88
2018-03-01T16:34:59.991Z,99254.78
2018-03-01T16:37:27.624Z,99259.91
2018-03-01T16:39:55.171Z,99250.11
2018-03-01T16:42:22.671Z,99248.05
2018-03-01T16:44:50.197Z,99238.80
2018-03-01T16:47:17.692Z,99237.48
2018-03-01T16:49:45.197Z,99234.50
2018-03-01T16:52:13.662Z,99231.17
2018-03-01T16:54:42.394Z,99224.90
2018-03-01T16:57:10.507Z,99207.45
2018-03-01T16:59:38.031Z,99211.38
2018-03-01T17:02:08.391Z,99212.72
2018-03-01T17:04:37.126Z,99206.39
2018-03-01T17:07:07.259Z,99202.58
2018-03-01T17:09:34.751Z,99201.72
2018-03-01T17:12:02.250Z,99203.88
2018-03-01T17:14:29.763Z,99188.10
2018-03-01T17:16:57.271Z,99177.89
2018-03-01T17:19:24.788Z,99183.89
2018-03-01T17:21:52.282Z,99177.03
2018-03-01T17:24:19.875Z,99171.11
2018-03-01T17:26:53.262Z,99159.14
2018-03-01T17:29:20.789Z,99142.58
2018-03-01T17:31:48.799Z,99143.02
2018-03-01T17:34:16.299Z,99157.92
2018-03-01T17:36:45.915Z,99159.62
2018-03-01T17:39:14.254Z,99145.16
2018-03-01T17:41:41.887Z,99136.22
2018-03-01T17:44:09.415Z,99143.03
2018-03-01T17:46:36.939Z,99131.11
2018-03-01T17:49:04.502Z,99131.11
2018-03-01T17:51:32.006Z,99136.22
2018-03-01T17:53:59.626Z,99141.32
2018-03-01T17:56:27.149Z,99148.97
2018-03-01T17:58:55.980Z,99148.12
2018-03-01T18:01:23.536Z,99153.59
2018-03-01T18:03:51.030Z,99154.93
2018-03-01T18:06:19.756Z,99157.42
2018-03-01T18:08:48.120Z,99150.59
2018-03-01T18:11:15.576Z,99140.81
2018-03-01T18:13:43.077Z,99151.86
2018-03-01T18:16:10.585Z,99151.81
2018-03-01T18:18:38.091Z,99151.01
2018-03-01T18:21:05.583Z,99133.11
2018-03-01T18:23:33.084Z,99135.25
2018-03-01T18:26:00.602Z,99125.40
2018-03-01T18:28:28.107Z,99122.39
2018-03-01T18:30:55.656Z,99126.21
2018-03-01T18:33:23.170Z,99110.39
2018-03-01T18:35:50.671Z,99100.18
2018-03-01T18:38:18.162Z,99105.30
2018-03-01T18:40:45.652Z,99083.11
2018-03-01T18:43:13.144Z,99088.21
2018-03-01T18:45:40.813Z,99087.75
2018-03-01T18:48:08.328Z,99080.50
2018-03-01T18:50:35.847Z,99070.69
2018-03-01T18:53:04.191Z,99061.32
2018-03-01T18:55:31.719Z,99072.83
2018-03-01T18:57:59.307Z,99057.91
2018-03-01T19:00:28.627Z,99066.84
2018-03-01T19:02:56.172Z,99054.88
2018-03-01T19:05:23.658Z,99057.88
2018-03-01T19:07:51.192Z,99047.60
2018-03-01T19:10:18.684Z,99051.00
2018-03-01T19:15:11.248Z,99025.50
2018-03-01T19:17:38.751Z,99044.67
2018-03-01T19:20:08.295Z,99029.34
2018-03-01T19:22:36.401Z,99032.27
2018-03-01T19:25:03.932Z,99035.29
2018-03-01T19:27:31.638Z,99039.08
2018-03-01T19:29:59.132Z,99012.28
2018-03-01T19:32:26.659Z,99023.37
2018-03-01T19:34:55.314Z,99017.39
2018-03-01T19:37:22.830Z,99014.79
2018-03-01T19:39:55.851Z,99016.92
2018-03-01T19:42:23.392Z,99005.06
2018-03-01T19:44:50.882Z,99004.63
2018-03-01T19:47:18.408Z,98997.75
2018-03-01T19:49:46.603Z,98998.22
2018-03-01T19:52:14.177Z,98998.17
2018-03-01T19:54:41.711Z,98986.67
2018-03-01T19:57:09.265Z,98978.13
2018-03-01T19:59:37.311Z,98966.19
2018-03-01T20:02:04.866Z,98978.53
2018-03-01T20:04:32.449Z,98971.66
2018-03-01T20:07:00.031Z,98975.41
2018-03-01T20:09:27.623Z,98986.90
2018-03-01T20:11:55.166Z,98977.91
2018-03-01T20:14:22.706Z,98985.95
2018-03-01T20:16:50.209Z,98977.42
2018-03-01T20:19:17.716Z,98981.67
2018-03-01T20:21:45.207Z,98991.84
2018-03-01T20:24:12.753Z,98959.43
2018-03-01T20:26:41.346Z,98973.90
2018-03-01T20:29:09.608Z,98972.98
2018-03-01T20:31:37.116Z,98972.55
2018-03-01T20:34:04.774Z,98958.42
2018-03-01T20:36:33.063Z,98954.13
2018-03-01T20:39:00.620Z,98967.33
2018-03-01T20:41:28.131Z,98971.97
2018-03-01T20:43:55.635Z,98975.37
2018-03-01T20:46:23.131Z,98966.41
2018-03-01T20:48:50.651Z,98952.75
2018-03-01T20:51:18.155Z,98957.02
2018-03-01T20:53:45.660Z,98943.79
2018-03-01T20:56:15.688Z,98944.59
2018-03-01T20:58:43.199Z,98938.61
2018-03-01T21:01:10.715Z,98945.41
2018-03-01T21:03:38.215Z,98934.31
2018-03-01T21:06:05.716Z,98933.83
2018-03-01T21:08:33.220Z,98934.23
2018-03-01T21:11:00.711Z,98931.63
2018-03-01T21:13:28.211Z,98923.49
2018-03-01T21:15:55.731Z,98910.20
2018-03-01T21:18:25.638Z,98909.33
2018-03-01T21:20:53.148Z,98922.88
2018-03-01T21:23:20.657Z,98924.98
2018-03-01T21:25:48.294Z,98917.69
2018-03-01T21:28:15.833Z,98915.95
2018-03-01T21:30:43.348Z,98912.48
2018-03-01T21:33:10.890Z,98937.19
2018-03-01T21:35:39.356Z,98937.15
2018-03-01T21:38:06.930Z,98920.47
2018-03-01T21:40:34.463Z,98914.08
2018-03-01T21:43:01.982Z,98924.64
2018-03-01T21:45:29.571Z,98916.09
2018-03-01T21:47:57.178Z,98911.77
2018-03-01T21:50:24.720Z,98908.33
2018-03-01T21:52:52.219Z,98915.96
2018-03-01T21:55:19.744Z,98906.94
2018-03-01T21:57:47.242Z,98908.63
2018-03-01T22:00:14.733Z,98909.04
2018-03-01T22:02:42.576Z,98912.39
2018-03-01T22:05:10.127Z,98900.86
2018-03-01T22:07:37.607Z,98916.58
2018-03-01T22:10:05.127Z,98912.72
2018-03-01T22:12:33.621Z,98913.97
2018-03-01T22:15:04.015Z,98897.27
2018-03-01T22:17:31.527Z,98901.50
2018-03-01T22:19:59.039Z,98895.91
2018-03-01T22:22:26.590Z,98886.52
2018-03-01T22:24:54.083Z,98886.91
2018-03-01T22:27:21.585Z,98883.87
2018-03-01T22:29:51.945Z,98869.77
2018-03-01T22:32:20.741Z,98866.75
2018-03-01T22:34:48.286Z,98860.29
2018-03-01T22:37:15.778Z,98855.98
2018-03-01T22:39:45.246Z,98865.31
2018-03-01T22:42:12.808Z,98864.03
2018-03-01T22:44:40.303Z,98860.16
2018-03-01T22:47:07.803Z,98850.76
2018-03-01T22:49:35.320Z,98854.95
2018-03-01T22:52:02.796Z,98852.73
2018-03-01T22:54:30.330Z,98854.85
2018-03-01T22:56:57.807Z,98851.83
2018-03-01T22:59:25.317Z,98851.77
2018-03-01T23:01:52.809Z,98841.06
2018-03-01T23:04:20.309Z,98838.87
2018-03-01T23:06:47.819Z,98835.43
2018-03-01T23:09:15.310Z,98834.13
2018-03-01T23:11:42.823Z,98829.36
2018-03-01T23:14:10.889Z,98827.59
2018-03-01T23:16:38.382Z,98830.55
2018-03-01T23:19:05.907Z,98830.52
2018-03-01T23:21:33.361Z,98826.24
2018-03-01T23:24:00.894Z,98817.65
2018-03-01T23:26:28.343Z,98808.66
2018-03-01T23:28:55.871Z,98813.77
2018-03-01T23:31:24.644Z,98812.91
2018-03-01T23:33:52.149Z,98798.33
2018-03-01T23:36:19.668Z,98807.62
2018-03-01T23:38:47.167Z,98798.70
2018-03-01T23:41:14.671Z,98793.94
2018-03-01T23:43:42.167Z,98795.56
2018-03-01T23:46:13.544Z,98789.58
2018-03-01T23:48:41.037Z,98787.83
2018-03-01T23:51:13.256Z,98790.31
2018-03-01T23:53:40.752Z,98798.81
2018-03-01T23:56:08.236Z,98785.16
2018-03-01T23:58:35.727Z,98781.67
